Time;durP1;ratioP1;P1;durP2;ratioP2;P2;SDS_P1;SDS_P2;PMS_P1;PMS_P2;Temp;Humidity;BMP_temperature;BMP_pressure;BME280_temperature;BME280_humidity;BME280_pressure;Samples;Min_cycle;Max_cycle;Signal;HPM_P1;HPM_P2
2023/04/22 00:01:09;;;;;;;3.45;2.25;;;;;;;-143.29;100.00;62188.47;4896823;29;20139;-81
2023/04/22 00:03:34;;;;;;;2.53;2.13;;;;;;;-143.29;100.00;62188.47;4896833;29;20024;-81
2023/04/22 00:06:00;;;;;;;2.92;2.50;;;;;;;-143.29;100.00;62188.47;4896869;29;20501;-81
2023/04/22 00:08:25;;;;;;;3.80;2.60;;;;;;;-143.29;100.00;62188.47;4896819;29;20028;-81
2023/04/22 00:10:51;;;;;;;2.13;1.90;;;;;;;-143.29;100.00;62188.47;4896800;29;20037;-81
2023/04/22 00:13:16;;;;;;;3.00;2.13;;;;;;;-143.29;100.00;62188.47;4896652;29;20399;-81
2023/04/22 00:15:42;;;;;;;2.83;2.45;;;;;;;-143.29;100.00;62188.47;4896619;29;20051;-81
2023/04/22 00:18:12;;;;;;;2.42;2.03;;;;;;;-143.29;100.00;62188.47;4896666;29;20032;-81
2023/04/22 00:20:39;;;;;;;3.00;2.60;;;;;;;-143.29;100.00;62188.47;4896705;29;20067;-81
2023/04/22 00:23:04;;;;;;;2.53;2.13;;;;;;;-143.29;100.00;62188.47;4896565;29;20603;-81
2023/04/22 00:25:30;;;;;;;3.33;2.63;;;;;;;-143.29;100.00;62188.47;4896743;29;20120;-81
2023/04/22 00:27:55;;;;;;;2.55;2.10;;;;;;;-143.29;100.00;62188.47;4896650;29;20032;-81
2023/04/22 00:30:20;;;;;;;4.13;2.40;;;;;;;-143.29;100.00;62188.47;4896598;29;20071;-81
2023/04/22 00:32:47;;;;;;;2.92;2.35;;;;;;;-143.29;100.00;62188.47;4896590;29;20061;-81
2023/04/22 00:35:13;;;;;;;2.53;2.20;;;;;;;-143.29;100.00;62188.47;4896534;29;20028;-81
2023/04/22 00:37:38;;;;;;;3.00;2.50;;;;;;;-143.29;100.00;62188.47;4896368;29;20029;-81
2023/04/22 00:40:05;;;;;;;3.10;2.10;;;;;;;-143.29;100.00;62188.47;4896435;29;20164;-81
2023/04/22 00:42:31;;;;;;;3.00;2.47;;;;;;;-143.29;100.00;62188.47;4896418;29;20160;-81
2023/04/22 00:44:57;;;;;;;2.60;2.22;;;;;;;-143.29;100.00;62188.47;4896560;29;20107;-81
2023/04/22 00:47:25;;;;;;;4.13;2.83;;;;;;;-143.29;100.00;62188.47;4899430;29;20043;-81
2023/04/22 00:49:52;;;;;;;2.58;1.75;;;;;;;-143.29;100.00;62188.47;4900255;29;20033;-81
2023/04/22 00:52:17;;;;;;;4.68;2.30;;;;;;;-143.29;100.00;62188.47;4900024;29;20036;-81
2023/04/22 00:54:43;;;;;;;2.88;2.30;;;;;;;-143.29;100.00;62188.47;4898585;29;20407;-81
2023/04/22 00:57:09;;;;;;;2.35;2.15;;;;;;;-143.29;100.00;62188.47;4899841;29;20059;-81
2023/04/22 00:59:34;;;;;;;2.10;1.90;;;;;;;-143.29;100.00;62188.47;4899941;29;20112;-81
2023/04/22 01:02:00;;;;;;;3.10;2.30;;;;;;;-143.29;100.00;62188.47;4898773;29;20036;-81
2023/04/22 01:04:26;;;;;;;2.05;1.63;;;;;;;-143.29;100.00;62188.47;4899726;29;20387;-81
2023/04/22 01:06:55;;;;;;;2.30;2.10;;;;;;;-143.29;100.00;62188.47;4899545;29;20033;-81
2023/04/22 01:09:20;;;;;;;3.05;2.45;;;;;;;-143.29;100.00;62188.47;4899693;29;20033;-81
2023/04/22 01:11:46;;;;;;;2.97;2.22;;;;;;;-143.29;100.00;62188.47;4899779;29;20028;-81
2023/04/22 01:14:12;;;;;;;2.45;2.25;;;;;;;-143.29;100.00;62188.47;4899324;29;20033;-81
2023/04/22 01:16:39;;;;;;;2.83;2.53;;;;;;;-143.29;100.00;62188.47;4898270;29;20031;-81
2023/04/22 01:19:05;;;;;;;2.40;2.20;;;;;;;-143.29;100.00;62188.47;4899275;29;20104;-81
2023/04/22 01:21:33;;;;;;;3.03;2.60;;;;;;;-143.29;100.00;62188.47;4899633;29;20120;-81
2023/04/22 01:23:59;;;;;;;2.85;2.47;;;;;;;-143.29;100.00;62188.47;4899666;29;20076;-81
2023/04/22 01:26:25;;;;;;;3.00;2.40;;;;;;;-143.29;100.00;62188.47;4899675;29;20112;-81
2023/04/22 01:28:50;;;;;;;3.42;2.42;;;;;;;-143.29;100.00;62188.47;4899212;29;20108;-81
2023/04/22 01:31:16;;;;;;;2.60;2.22;;;;;;;-143.29;100.00;62188.47;4899431;29;20109;-81
2023/04/22 01:33:41;;;;;;;2.72;2.30;;;;;;;-143.29;100.00;62188.47;4899380;29;20037;-81
2023/04/22 01:36:07;;;;;;;2.50;2.10;;;;;;;-143.29;100.00;62188.47;4899121;29;20386;-81
2023/04/22 01:38:33;;;;;;;2.85;2.53;;;;;;;-143.29;100.00;62188.47;4899358;29;20084;-81
2023/04/22 01:41:01;;;;;;;2.83;2.10;;;;;;;-143.29;100.00;62188.47;4906744;29;20043;-81
2023/04/22 01:43:26;;;;;;;2.63;2.03;;;;;;;-143.29;100.00;62188.47;4898827;29;20066;-81
2023/04/22 01:45:52;;;;;;;2.38;2.10;;;;;;;-143.29;100.00;62188.47;4899099;29;20056;-81
2023/04/22 01:48:18;;;;;;;2.50;2.13;;;;;;;-143.29;100.00;62188.47;4897593;29;20085;-81
2023/04/22 01:50:44;;;;;;;2.72;2.45;;;;;;;-143.29;100.00;62188.47;4898988;29;20036;-81
2023/04/22 01:53:09;;;;;;;2.60;2.30;;;;;;;-143.29;100.00;62188.47;4899005;29;20021;-81
2023/04/22 01:55:36;;;;;;;2.35;2.13;;;;;;;-143.29;100.00;62188.47;4898904;29;20028;-80
2023/04/22 01:58:03;;;;;;;2.55;1.90;;;;;;;-143.29;100.00;62188.47;4898238;29;20028;-81
2023/04/22 02:00:28;;;;;;;2.47;1.90;;;;;;;-143.29;100.00;62188.47;4898690;29;20164;-81
2023/04/22 02:02:54;;;;;;;4.55;2.35;;;;;;;-143.29;100.00;62188.47;4897480;29;20107;-81
2023/04/22 02:05:19;;;;;;;3.65;2.20;;;;;;;-143.29;100.00;62188.47;4898887;29;20415;-81
2023/04/22 02:07:44;;;;;;;2.80;2.13;;;;;;;-143.29;100.00;62188.47;4898691;29;20029;-81
2023/04/22 02:10:10;;;;;;;3.00;2.50;;;;;;;-143.29;100.00;62188.47;4898858;29;20605;-81
2023/04/22 02:12:36;;;;;;;2.78;2.28;;;;;;;-143.29;100.00;62188.47;4898547;29;20036;-80
2023/04/22 02:15:02;;;;;;;3.17;2.65;;;;;;;-143.29;100.00;62188.47;4898989;29;20032;-81
2023/04/22 02:17:28;;;;;;;3.42;2.60;;;;;;;-143.29;100.00;62188.47;4898347;29;20135;-81
2023/04/22 02:19:54;;;;;;;3.28;2.70;;;;;;;-143.29;100.00;62188.47;4898333;29;20551;-80
2023/04/22 02:22:21;;;;;;;2.92;2.63;;;;;;;-143.29;100.00;62188.47;4898736;29;20035;-81
2023/04/22 02:24:46;;;;;;;2.47;2.20;;;;;;;-143.29;100.00;62188.47;4898398;29;20060;-81
2023/04/22 02:27:11;;;;;;;2.42;2.22;;;;;;;-143.29;100.00;62188.47;4898348;29;20063;-80
2023/04/22 02:29:37;;;;;;;2.80;2.30;;;;;;;-143.29;100.00;62188.47;4898303;29;20028;-81
2023/04/22 02:32:02;;;;;;;3.28;2.40;;;;;;;-143.29;100.00;62188.47;4898429;29;20092;-81
2023/04/22 02:34:28;;;;;;;3.08;2.63;;;;;;;-143.29;100.00;62188.47;4898425;29;20568;-81
2023/04/22 02:36:53;;;;;;;2.67;2.42;;;;;;;-143.29;100.00;62188.47;4898421;29;20084;-81
2023/04/22 02:39:18;;;;;;;3.33;2.70;;;;;;;-143.29;100.00;62188.47;4898053;29;20029;-81
2023/04/22 02:41:44;;;;;;;2.90;2.40;;;;;;;-143.29;100.00;62188.47;4896936;29;20036;-81
2023/04/22 02:44:09;;;;;;;3.45;2.42;;;;;;;-143.29;100.00;62188.47;4898137;29;20025;-81
2023/04/22 02:46:35;;;;;;;2.75;2.10;;;;;;;-143.29;100.00;62188.47;4896886;29;20376;-81
2023/04/22 02:49:00;;;;;;;3.22;2.50;;;;;;;-143.29;100.00;62188.47;4897836;29;20468;-81
2023/04/22 02:51:25;;;;;;;2.70;2.38;;;;;;;-143.29;100.00;62188.47;4897875;29;20036;-81
2023/04/22 02:53:51;;;;;;;2.55;2.15;;;;;;;-143.29;100.00;62188.47;4897815;29;20025;-81
2023/04/22 02:56:17;;;;;;;2.70;2.25;;;;;;;-143.29;100.00;62188.47;4897814;29;20028;-81
2023/04/22 02:58:42;;;;;;;4.13;2.80;;;;;;;-143.29;100.00;62188.47;4897721;29;20036;-81
2023/04/22 03:01:07;;;;;;;2.95;2.63;;;;;;;-143.29;100.00;62188.47;4898285;29;20115;-81
2023/04/22 03:03:33;;;;;;;3.10;2.55;;;;;;;-143.29;100.00;62188.47;4897503;29;20395;-81
2023/04/22 03:05:58;;;;;;;3.58;2.80;;;;;;;-143.29;100.00;62188.47;4897784;29;20067;-81
2023/04/22 03:08:24;;;;;;;2.85;2.55;;;;;;;-143.29;100.00;62188.47;4897574;29;20028;-81
2023/04/22 03:10:49;;;;;;;2.90;2.50;;;;;;;-143.29;100.00;62188.47;4897491;29;20032;-81
2023/04/22 03:13:14;;;;;;;2.72;2.45;;;;;;;-143.29;100.00;62188.47;4897410;29;20390;-81
2023/04/22 03:15:40;;;;;;;2.97;2.38;;;;;;;-143.29;100.00;62188.47;4897429;29;20517;-80
2023/04/22 03:18:06;;;;;;;3.50;2.60;;;;;;;-143.29;100.00;62188.47;4897272;29;20592;-81
2023/04/22 03:20:32;;;;;;;2.78;2.40;;;;;;;-143.29;100.00;62188.47;4897394;29;20029;-81
2023/04/22 03:22:58;;;;;;;4.22;3.03;;;;;;;-143.29;100.00;62188.47;4897501;29;20035;-81
2023/04/22 03:25:23;;;;;;;3.00;2.60;;;;;;;-143.29;100.00;62188.47;4897370;29;20056;-81
2023/04/22 03:27:49;;;;;;;4.63;3.10;;;;;;;-143.29;100.00;62188.47;4897098;29;20044;-80
2023/04/22 03:30:14;;;;;;;4.13;2.75;;;;;;;-143.29;100.00;62188.47;4897261;29;20035;-81
2023/04/22 03:32:39;;;;;;;3.67;2.80;;;;;;;-143.29;100.00;62188.47;4897805;29;20029;-81
2023/04/22 03:35:05;;;;;;;4.10;3.22;;;;;;;-143.29;100.00;62188.47;4897074;29;20043;-80
2023/04/22 03:37:30;;;;;;;4.57;2.78;;;;;;;-143.29;100.00;62188.47;4897131;29;20040;-81
2023/04/22 03:39:56;;;;;;;3.35;3.05;;;;;;;-143.29;100.00;62188.47;4897237;29;20028;-81
2023/04/22 03:42:21;;;;;;;3.13;2.50;;;;;;;-143.29;100.00;62188.47;4897049;29;20092;-81
2023/04/22 03:44:46;;;;;;;3.53;2.50;;;;;;;-143.29;100.00;62188.47;4897198;29;20063;-81
2023/04/22 03:47:12;;;;;;;4.03;3.13;;;;;;;-143.29;100.00;62188.47;4896782;29;20119;-81
2023/04/22 03:49:37;;;;;;;3.17;2.78;;;;;;;-143.29;100.00;62188.47;4897216;29;20028;-81
2023/04/22 03:52:03;;;;;;;4.82;3.17;;;;;;;-143.29;100.00;62188.47;4895811;29;20020;-81
2023/04/22 03:54:28;;;;;;;4.15;2.97;;;;;;;-143.29;100.00;62188.47;4896978;29;20036;-81
2023/04/22 03:56:54;;;;;;;4.35;2.95;;;;;;;-143.29;100.00;62188.47;4896732;29;20032;-81
2023/04/22 03:59:19;;;;;;;4.15;2.85;;;;;;;-143.29;100.00;62188.47;4896946;29;20067;-81
2023/04/22 04:01:45;;;;;;;6.25;2.70;;;;;;;-143.29;100.00;62188.47;4896886;29;20111;-81
2023/04/22 04:04:11;;;;;;;4.63;3.33;;;;;;;-143.29;100.00;62188.47;4896996;29;20074;-81
2023/04/22 04:06:37;;;;;;;4.05;3.33;;;;;;;-143.29;100.00;62188.47;4896778;29;20040;-81
2023/04/22 04:09:02;;;;;;;3.75;3.05;;;;;;;-143.29;100.00;62188.47;4896681;29;20028;-81
2023/04/22 04:11:28;;;;;;;4.63;3.15;;;;;;;-143.29;100.00;62188.47;4896834;29;20051;-81
2023/04/22 04:13:53;;;;;;;4.13;3.35;;;;;;;-143.29;100.00;62188.47;4896657;29;20483;-81
2023/04/22 04:16:19;;;;;;;3.92;3.03;;;;;;;-143.29;100.00;62188.47;4896817;29;20028;-81
2023/04/22 04:18:44;;;;;;;3.88;2.80;;;;;;;-143.29;100.00;62188.47;4896667;29;20017;-81
2023/04/22 04:21:10;;;;;;;4.07;3.00;;;;;;;-143.29;100.00;62188.47;4898032;29;20497;-81
2023/04/22 04:23:36;;;;;;;3.35;2.75;;;;;;;-143.29;100.00;62188.47;4900716;29;20032;-81
2023/04/22 04:26:02;;;;;;;4.68;3.00;;;;;;;-143.29;100.00;62188.47;4900590;29;20024;-81
2023/04/22 04:28:32;;;;;;;4.47;3.55;;;;;;;-143.29;100.00;62188.47;4900893;29;20028;-81
2023/04/22 04:31:04;;;;;;;4.85;3.58;;;;;;;-143.29;100.00;62188.47;4900470;29;20028;-81
2023/04/22 04:33:31;;;;;;;3.97;3.42;;;;;;;-143.29;100.00;62188.47;4900398;29;20032;-81
2023/04/22 04:35:57;;;;;;;4.32;3.15;;;;;;;-143.29;100.00;62188.47;4899198;29;20021;-81
2023/04/22 04:38:23;;;;;;;4.28;3.10;;;;;;;-143.29;100.00;62188.47;4900143;29;20088;-81
2023/04/22 04:40:50;;;;;;;4.15;3.15;;;;;;;-143.29;100.00;62188.47;4900235;29;20116;-80
2023/04/22 04:43:15;;;;;;;4.53;2.92;;;;;;;-143.29;100.00;62188.47;4900200;29;20108;-80
2023/04/22 04:45:45;;;;;;;4.03;3.17;;;;;;;-143.29;100.00;62188.47;4900193;29;20108;-81
2023/04/22 04:48:11;;;;;;;3.38;3.08;;;;;;;-143.29;100.00;62188.47;4900299;29;20052;-80
2023/04/22 04:50:37;;;;;;;4.57;3.85;;;;;;;-143.29;100.00;62188.47;4900096;29;20042;-81
2023/04/22 04:53:02;;;;;;;3.83;3.17;;;;;;;-143.29;100.00;62188.47;4899958;29;20407;-81
2023/04/22 04:55:28;;;;;;;4.45;3.30;;;;;;;-143.29;100.00;62188.47;4899938;29;20071;-81
2023/04/22 04:57:53;;;;;;;3.40;3.10;;;;;;;-143.29;100.00;62188.47;4899910;29;20028;-81
2023/04/22 05:00:19;;;;;;;4.13;2.90;;;;;;;-143.29;100.00;62188.47;4899982;29;20439;-81
2023/04/22 05:02:44;;;;;;;4.00;3.13;;;;;;;-143.29;100.00;62188.47;4900063;29;20032;-81
2023/04/22 05:05:10;;;;;;;5.07;2.92;;;;;;;-143.29;100.00;62188.47;4899865;29;20111;-81
2023/04/22 05:07:35;;;;;;;3.90;2.90;;;;;;;-143.29;100.00;62188.47;4899709;29;20075;-81
2023/04/22 05:10:01;;;;;;;4.15;3.40;;;;;;;-143.29;100.00;62188.47;4899831;29;20092;-81
2023/04/22 05:12:26;;;;;;;7.30;3.38;;;;;;;-143.29;100.00;62188.47;4899979;29;20041;-80
2023/04/22 05:14:52;;;;;;;4.10;3.17;;;;;;;-143.29;100.00;62188.47;4899765;29;20032;-81
2023/04/22 05:17:18;;;;;;;4.00;3.20;;;;;;;-143.29;100.00;62188.47;4899642;29;20037;-81
2023/04/22 05:19:43;;;;;;;3.83;3.00;;;;;;;-143.29;100.00;62188.47;4899773;29;20472;-81
2023/04/22 05:22:08;;;;;;;3.88;2.85;;;;;;;-143.29;100.00;62188.47;4899512;29;20025;-80
2023/04/22 05:24:34;;;;;;;3.33;2.92;;;;;;;-143.29;100.00;62188.47;4899646;29;20021;-80
2023/04/22 05:26:59;;;;;;;4.57;3.10;;;;;;;-143.29;100.00;62188.47;4899435;29;20025;-81
2023/04/22 05:29:27;;;;;;;4.75;3.47;;;;;;;-143.29;100.00;62188.47;4899536;29;20032;-81
2023/04/22 05:31:52;;;;;;;4.32;3.33;;;;;;;-143.29;100.00;62188.47;4898871;29;20031;-81
2023/04/22 05:34:18;;;;;;;5.18;3.55;;;;;;;-143.29;100.00;62188.47;4898648;29;20032;-81
2023/04/22 05:36:44;;;;;;;4.25;2.92;;;;;;;-143.29;100.00;62188.47;4899905;29;20031;-81
2023/04/22 05:39:09;;;;;;;3.33;2.70;;;;;;;-143.29;100.00;62188.47;4899153;29;20035;-81
2023/04/22 05:41:34;;;;;;;3.67;2.78;;;;;;;-143.29;100.00;62188.47;4899102;29;20075;-81
2023/04/22 05:44:00;;;;;;;4.18;2.83;;;;;;;-143.29;100.00;62188.47;4899215;29;20024;-81
2023/04/22 05:46:25;;;;;;;3.53;2.97;;;;;;;-143.29;100.00;62188.47;4899102;29;20061;-81
2023/04/22 05:48:51;;;;;;;4.20;3.05;;;;;;;-143.29;100.00;62188.47;4898977;29;20033;-81
2023/04/22 05:51:16;;;;;;;3.20;2.67;;;;;;;-143.29;100.00;62188.47;4899054;29;20032;-81
2023/04/22 05:53:41;;;;;;;3.42;2.95;;;;;;;-143.29;100.00;62188.47;4898941;29;20032;-81
2023/04/22 05:56:07;;;;;;;3.25;2.85;;;;;;;-143.29;100.00;62188.47;4898999;29;20052;-81
2023/04/22 05:58:32;;;;;;;2.90;2.42;;;;;;;-143.29;100.00;62188.47;4898710;29;20060;-80
2023/04/22 06:00:58;;;;;;;3.25;2.58;;;;;;;-143.29;100.00;62188.47;4898871;29;20060;-81
2023/04/22 06:03:23;;;;;;;3.20;2.40;;;;;;;-143.29;100.00;62188.47;4898730;29;20365;-81
2023/04/22 06:05:48;;;;;;;3.80;2.90;;;;;;;-143.29;100.00;62188.47;4899014;29;20024;-81
2023/04/22 06:08:14;;;;;;;3.38;2.30;;;;;;;-143.29;100.00;62188.47;4898674;29;20095;-81
2023/04/22 06:10:39;;;;;;;3.25;2.50;;;;;;;-143.29;100.00;62188.47;4898703;29;20527;-81
2023/04/22 06:13:05;;;;;;;3.50;2.63;;;;;;;-143.29;100.00;62188.47;4898541;29;20040;-81
2023/04/22 06:15:30;;;;;;;3.15;2.33;;;;;;;-143.29;100.00;62188.47;4898663;29;20040;-81
2023/04/22 06:17:55;;;;;;;3.78;2.55;;;;;;;-143.29;100.00;62188.47;4898550;29;20025;-81
2023/04/22 06:20:21;;;;;;;3.33;2.50;;;;;;;-143.29;100.00;62188.47;4898592;29;20085;-81
2023/04/22 06:22:46;;;;;;;2.45;2.10;;;;;;;-143.29;100.00;62188.47;4898620;29;20032;-80
2023/04/22 06:25:11;;;;;;;2.75;2.22;;;;;;;-143.29;100.00;62188.47;4898613;29;20036;-81
2023/04/22 06:27:37;;;;;;;2.47;2.17;;;;;;;-143.29;100.00;62188.47;4898368;29;20080;-81
2023/04/22 06:30:04;;;;;;;2.60;2.03;;;;;;;-143.29;100.00;62188.47;4898263;29;20031;-81
2023/04/22 06:32:29;;;;;;;2.78;2.08;;;;;;;-143.29;100.00;62188.47;4898327;29;20040;-81
2023/04/22 06:34:54;;;;;;;2.50;2.03;;;;;;;-143.29;100.00;62188.47;4898348;29;20036;-80
2023/04/22 06:37:20;;;;;;;2.33;2.05;;;;;;;-143.29;100.00;62188.47;4898432;29;20357;-81
2023/04/22 06:39:45;;;;;;;2.90;2.22;;;;;;;-143.29;100.00;62188.47;4898162;29;20558;-81
2023/04/22 06:42:10;;;;;;;3.13;2.47;;;;;;;-143.29;100.00;62188.47;4897987;29;20028;-81
2023/04/22 06:44:36;;;;;;;2.25;2.03;;;;;;;-143.29;100.00;62188.47;4897599;29;20048;-81
2023/04/22 06:47:01;;;;;;;2.20;2.00;;;;;;;-143.29;100.00;62188.47;4898083;29;20020;-81
2023/04/22 06:49:26;;;;;;;2.33;1.80;;;;;;;-143.29;100.00;62188.47;4898079;29;20111;-81
2023/04/22 06:51:52;;;;;;;2.30;1.85;;;;;;;-143.29;100.00;62188.47;4898155;29;20060;-81
2023/04/22 06:54:17;;;;;;;2.92;2.25;;;;;;;-143.29;100.00;62188.47;4897905;29;20028;-81
2023/04/22 06:56:42;;;;;;;3.40;2.35;;;;;;;-143.29;100.00;62188.47;4897788;29;20388;-81
2023/04/22 06:59:08;;;;;;;3.08;2.28;;;;;;;-143.29;100.00;62188.47;4897781;29;20115;-81
2023/04/22 07:01:33;;;;;;;2.72;2.35;;;;;;;-143.29;100.00;62188.47;4897765;29;20064;-81
2023/04/22 07:03:58;;;;;;;3.10;2.55;;;;;;;-143.29;100.00;62188.47;4897775;29;20043;-81
2023/04/22 07:06:24;;;;;;;2.72;2.40;;;;;;;-143.29;100.00;62188.47;4897775;29;20028;-81
2023/04/22 07:08:49;;;;;;;3.08;2.30;;;;;;;-143.29;100.00;62188.47;4897637;29;20029;-81
2023/04/22 07:11:15;;;;;;;2.60;2.17;;;;;;;-143.29;100.00;62188.47;4897549;29;20099;-81
2023/04/22 07:13:40;;;;;;;3.38;2.58;;;;;;;-143.29;100.00;62188.47;4897520;29;20067;-81
2023/04/22 07:16:06;;;;;;;3.10;2.58;;;;;;;-143.29;100.00;62188.47;4897589;29;20024;-81
2023/04/22 07:18:31;;;;;;;3.70;2.42;;;;;;;-143.29;100.00;62188.47;4897547;29;20036;-81
2023/04/22 07:20:56;;;;;;;3.63;2.80;;;;;;;-143.29;100.00;62188.47;4897290;29;20029;-81
2023/04/22 07:23:22;;;;;;;4.03;2.60;;;;;;;-143.29;100.00;62188.47;4897507;29;20029;-81
2023/04/22 07:25:47;;;;;;;2.65;2.30;;;;;;;-143.29;100.00;62188.47;4897272;29;20035;-81
2023/04/22 07:28:13;;;;;;;3.25;2.60;;;;;;;-143.29;100.00;62188.47;4897352;29;20072;-81
2023/04/22 07:30:38;;;;;;;2.97;2.40;;;;;;;-143.29;100.00;62188.47;4897343;29;20499;-81
2023/04/22 07:33:04;;;;;;;3.75;2.78;;;;;;;-143.29;100.00;62188.47;4897111;29;20024;-81
2023/04/22 07:35:30;;;;;;;3.08;2.42;;;;;;;-143.29;100.00;62188.47;4897287;29;20025;-81
2023/04/22 07:37:55;;;;;;;3.13;2.55;;;;;;;-143.29;100.00;62188.47;4897214;29;20111;-81
2023/04/22 07:40:21;;;;;;;2.70;2.30;;;;;;;-143.29;100.00;62188.47;4897200;29;20559;-81
2023/04/22 07:42:46;;;;;;;3.45;2.63;;;;;;;-143.29;100.00;62188.47;4897061;29;20467;-81
2023/04/22 07:45:12;;;;;;;3.25;2.55;;;;;;;-143.29;100.00;62188.47;4896976;29;20366;-81
2023/04/22 07:47:38;;;;;;;3.22;2.45;;;;;;;-143.29;100.00;62188.47;4896963;29;20028;-81
2023/04/22 07:50:04;;;;;;;2.55;2.13;;;;;;;-143.29;100.00;62188.47;4895765;29;20033;-81
2023/04/22 07:52:30;;;;;;;3.80;2.72;;;;;;;-143.29;100.00;62188.47;4896813;29;20024;-81
2023/04/22 07:54:55;;;;;;;2.80;2.47;;;;;;;-143.29;100.00;62188.47;4897263;29;20052;-81
2023/04/22 07:57:21;;;;;;;4.10;2.75;;;;;;;-143.29;100.00;62188.47;4896389;29;20395;-81
2023/04/22 07:59:50;;;;;;;2.83;2.53;;;;;;;-143.29;100.00;62188.47;4896871;29;20032;-81
2023/04/22 08:02:16;;;;;;;3.13;2.25;;;;;;;-143.29;100.00;62188.47;4897050;29;20036;-81
2023/04/22 08:04:41;;;;;;;3.40;2.65;;;;;;;-143.29;100.00;62188.47;4896796;29;20368;-81
2023/04/22 08:07:06;;;;;;;3.10;2.80;;;;;;;-143.29;100.00;62188.47;4896724;29;20499;-81
2023/04/22 08:09:32;;;;;;;3.67;2.63;;;;;;;-143.29;100.00;62188.47;4896779;29;20032;-81
2023/04/22 08:11:57;;;;;;;4.35;3.05;;;;;;;-143.29;100.00;62188.47;4896853;29;20032;-81
2023/04/22 08:14:23;;;;;;;3.58;3.05;;;;;;;-143.29;100.00;62188.47;4896691;29;20035;-81
2023/04/22 08:16:50;;;;;;;3.60;2.95;;;;;;;-143.29;100.00;62188.47;4896606;29;20024;-81
2023/04/22 08:19:16;;;;;;;3.22;2.83;;;;;;;-143.29;100.00;62188.47;4896550;29;20025;-81
2023/04/22 08:21:41;;;;;;;5.97;3.25;;;;;;;-143.29;100.00;62188.47;4896850;29;20036;-81
2023/04/22 08:24:07;;;;;;;3.45;2.75;;;;;;;-143.29;100.00;62188.47;4896470;29;20035;-81
2023/04/22 08:26:32;;;;;;;3.42;2.63;;;;;;;-143.29;100.00;62188.47;4896919;29;20155;-81
2023/04/22 08:28:57;;;;;;;3.58;2.83;;;;;;;-143.29;100.00;62188.47;4896716;29;20036;-81
2023/04/22 08:31:23;;;;;;;5.07;3.83;;;;;;;-143.29;100.00;62188.47;4896726;29;20479;-81
2023/04/22 08:33:49;;;;;;;3.75;2.92;;;;;;;-143.29;100.00;62188.47;4896506;29;20025;-81
2023/04/22 08:36:15;;;;;;;4.60;3.88;;;;;;;-143.29;100.00;62188.47;4896452;29;20092;-81
2023/04/22 08:38:40;;;;;;;4.70;3.35;;;;;;;-143.29;100.00;62188.47;4896384;29;20029;-81
2023/04/22 08:41:06;;;;;;;3.78;3.03;;;;;;;-143.29;100.00;62188.47;4896295;29;20079;-81
2023/04/22 08:43:31;;;;;;;4.55;3.80;;;;;;;-143.29;100.00;62188.47;4896782;29;20480;-81
2023/04/22 08:45:57;;;;;;;4.57;3.60;;;;;;;-143.29;100.00;62188.47;4896610;29;20431;-81
2023/04/22 08:48:22;;;;;;;4.80;3.80;;;;;;;-143.29;100.00;62188.47;4896387;29;20372;-81
2023/04/22 08:50:49;;;;;;;4.72;4.00;;;;;;;-143.29;100.00;62188.47;4896407;29;20052;-81
2023/04/22 08:53:14;;;;;;;5.75;4.55;;;;;;;-143.29;100.00;62188.47;4896444;29;20043;-81
2023/04/22 08:55:43;;;;;;;6.57;4.53;;;;;;;-143.29;100.00;62188.47;4896274;29;20029;-81
2023/04/22 08:58:10;;;;;;;5.18;4.50;;;;;;;-143.29;100.00;62188.47;4896313;29;20024;-81
2023/04/22 09:00:36;;;;;;;5.05;4.18;;;;;;;-143.29;100.00;62188.47;4895097;29;20040;-81
2023/04/22 09:03:05;;;;;;;4.88;4.38;;;;;;;-143.29;100.00;62188.47;4896395;29;20381;-81
2023/04/22 09:05:33;;;;;;;3.88;3.30;;;;;;;-143.29;100.00;62188.47;4896291;29;20027;-81
2023/04/22 09:07:58;;;;;;;6.22;4.65;;;;;;;-143.29;100.00;62188.47;4898426;29;20033;-81
2023/04/22 09:10:25;;;;;;;4.85;3.85;;;;;;;-143.29;100.00;62188.47;4899808;29;20088;-81
2023/04/22 09:12:50;;;;;;;3.95;3.15;;;;;;;-143.29;100.00;62188.47;4898561;29;20388;-81
2023/04/22 09:15:16;;;;;;;4.68;3.45;;;;;;;-143.29;100.00;62188.47;4899809;29;20053;-81
2023/04/22 09:17:42;;;;;;;4.25;3.50;;;;;;;-143.29;100.00;62188.47;4899602;29;20116;-81
2023/04/22 09:20:08;;;;;;;4.05;3.30;;;;;;;-143.29;100.00;62188.47;4899460;29;20112;-81
2023/04/22 09:22:45;;;;;;;6.85;5.97;;;;;;;-143.29;100.00;62188.47;4899606;29;20039;-81
2023/04/22 09:25:25;;;;;;;3.45;3.00;;;;;;;-143.29;100.00;62188.47;4899644;29;20041;-81
2023/04/22 09:27:55;;;;;;;3.75;3.05;;;;;;;-143.29;100.00;62188.47;4899509;29;20053;-81
2023/04/22 09:30:29;;;;;;;7.20;5.10;;;;;;;-143.29;100.00;62188.47;4899404;29;20029;-81
2023/04/22 09:33:00;;;;;;;6.97;5.63;;;;;;;-143.29;100.00;62188.47;4899331;29;20076;-81
2023/04/22 09:35:33;;;;;;;5.25;4.10;;;;;;;-143.29;100.00;62188.47;4899301;29;20033;-81
2023/04/22 09:38:00;;;;;;;4.47;3.67;;;;;;;-143.29;100.00;62188.47;4899289;29;20406;-81
2023/04/22 09:40:26;;;;;;;6.10;5.18;;;;;;;-143.29;100.00;62188.47;4899290;29;20124;-81
2023/04/22 09:43:03;;;;;;;4.70;3.53;;;;;;;-143.29;100.00;62188.47;4899494;29;20114;-81
2023/04/22 09:45:40;;;;;;;7.93;6.53;;;;;;;-143.29;100.00;62188.47;4899310;29;20029;-81
2023/04/22 09:48:12;;;;;;;7.25;5.90;;;;;;;-143.29;100.00;62188.47;4899124;29;20029;-81
2023/04/22 09:50:40;;;;;;;9.35;6.75;;;;;;;-143.29;100.00;62188.47;4899074;29;20035;-81
2023/04/22 09:53:10;;;;;;;6.65;4.80;;;;;;;-143.29;100.00;62188.47;4898945;29;20036;-81
2023/04/22 09:55:47;;;;;;;7.28;5.57;;;;;;;-143.29;100.00;62188.47;4899478;29;20179;-81
2023/04/22 09:58:15;;;;;;;7.65;4.88;;;;;;;-143.29;100.00;62188.47;4898717;29;20399;-81
2023/04/22 10:01:03;;;;;;;5.82;4.63;;;;;;;-143.29;100.00;62188.47;4899054;29;20036;-81
2023/04/22 10:03:28;;;;;;;7.93;6.80;;;;;;;-143.29;100.00;62188.47;4899014;29;20083;-81
2023/04/22 10:05:54;;;;;;;6.28;4.88;;;;;;;-143.29;100.00;62188.47;4898844;29;20431;-81
2023/04/22 10:08:19;;;;;;;9.90;6.53;;;;;;;-143.29;100.00;62188.47;4898614;29;20490;-81
2023/04/22 10:10:45;;;;;;;10.48;7.43;;;;;;;-143.29;100.00;62188.47;4898693;29;20495;-81
2023/04/22 10:13:11;;;;;;;7.13;4.68;;;;;;;-143.29;100.00;62188.47;4898724;29;20033;-81
2023/04/22 10:15:43;;;;;;;8.98;7.43;;;;;;;-143.29;100.00;62188.47;4898771;29;20404;-81
2023/04/22 10:18:10;;;;;;;;;;;;;;;-143.29;100.00;62188.47;4898628;29;20036;-81
2023/04/22 10:20:37;;;;;;;8.43;6.75;;;;;;;-143.29;100.00;62188.47;4897960;29;19923;-81
2023/04/22 10:23:05;;;;;;;6.13;4.70;;;;;;;-143.29;100.00;62188.47;4898375;29;20032;-81
2023/04/22 10:25:31;;;;;;;6.60;5.50;;;;;;;-143.29;100.00;62188.47;4898599;29;20066;-81
2023/04/22 10:28:04;;;;;;;8.98;7.38;;;;;;;-143.29;100.00;62188.47;4898488;29;20377;-81
2023/04/22 10:30:32;;;;;;;8.35;6.43;;;;;;;-143.29;100.00;62188.47;4898350;29;20032;-81
2023/04/22 10:33:19;;;;;;;7.93;5.90;;;;;;;-143.29;100.00;62188.47;4898150;29;20390;-81
2023/04/22 10:36:24;;;;;;;5.63;4.28;;;;;;;-143.29;100.00;62188.47;4897946;29;20384;-81
2023/04/22 10:38:52;;;;;;;6.45;4.47;;;;;;;-143.29;100.00;62188.47;4897740;29;20456;-81
2023/04/22 10:41:27;;;;;;;4.30;3.78;;;;;;;-143.29;100.00;62188.47;4898146;29;20032;-81
2023/04/22 10:43:58;;;;;;;5.25;3.95;;;;;;;-143.29;100.00;62188.47;4897981;29;20029;-81
2023/04/22 10:46:30;;;;;;;4.80;4.22;;;;;;;-143.29;100.00;62188.47;4898301;29;20028;-81
2023/04/22 10:48:56;;;;;;;4.65;3.33;;;;;;;-143.29;100.00;62188.47;4897922;29;20415;-81
2023/04/22 10:51:41;;;;;;;4.32;3.00;;;;;;;-143.29;100.00;62188.47;4898067;29;20081;-81
2023/04/22 10:54:35;;;;;;;6.88;3.10;;;;;;;-143.29;100.00;62188.47;4897897;29;20381;-81
2023/04/22 10:57:17;;;;;;;5.97;4.50;;;;;;;-143.29;100.00;62188.47;4897591;29;20032;-81
2023/04/22 10:59:56;;;;;;;3.88;3.10;;;;;;;-143.29;100.00;62188.47;4897837;29;20037;-81
2023/04/22 11:02:22;;;;;;;4.20;3.10;;;;;;;-143.29;100.00;62188.47;4897881;29;20491;-81
2023/04/22 11:04:49;;;;;;;3.50;2.75;;;;;;;-143.29;100.00;62188.47;4896419;29;20447;-81
2023/04/22 11:07:19;;;;;;;4.57;3.00;;;;;;;-143.29;100.00;62188.47;4897663;29;20519;-81